sensor_id;sensor_type;location;lat;lon;timestamp;temperature;humidity
72883;DHT22;61017;37.812;-122.286;2023-03-01T00:00:10;14.10;73.80
72883;DHT22;61017;37.812;-122.286;2023-03-01T00:01:43;14.10;74.70
72883;DHT22;61017;37.812;-122.286;2023-03-01T00:03:14;14.10;74.00
72883;DHT22;61017;37.812;-122.286;2023-03-01T00:04:54;14.10;73.90
72883;DHT22;61017;37.812;-122.286;2023-03-01T00:06:27;14.10;72.20
72883;DHT22;61017;37.812;-122.286;2023-03-01T00:07:59;14.20;71.10
72883;DHT22;61017;37.812;-122.286;2023-03-01T00:11:27;14.20;69.50
72883;DHT22;61017;37.812;-122.286;2023-03-01T00:13:00;14.20;69.50
72883;DHT22;61017;37.812;-122.286;2023-03-01T00:14:36;14.20;70.00
72883;DHT22;61017;37.812;-122.286;2023-03-01T00:16:16;14.20;70.20
72883;DHT22;61017;37.812;-122.286;2023-03-01T00:17:48;14.20;69.40
72883;DHT22;61017;37.812;-122.286;2023-03-01T00:19:20;14.30;68.20
72883;DHT22;61017;37.812;-122.286;2023-03-01T00:20:55;14.30;67.60
72883;DHT22;61017;37.812;-122.286;2023-03-01T00:22:28;14.30;67.10
72883;DHT22;61017;37.812;-122.286;2023-03-01T00:24:00;14.30;66.00
72883;DHT22;61017;37.812;-122.286;2023-03-01T00:25:32;14.30;67.00
72883;DHT22;61017;37.812;-122.286;2023-03-01T00:27:03;14.30;67.00
72883;DHT22;61017;37.812;-122.286;2023-03-01T00:28:35;14.30;68.00
72883;DHT22;61017;37.812;-122.286;2023-03-01T00:30:07;14.30;67.10
72883;DHT22;61017;37.812;-122.286;2023-03-01T00:31:42;14.30;66.50
72883;DHT22;61017;37.812;-122.286;2023-03-01T00:33:15;14.40;65.80
72883;DHT22;61017;37.812;-122.286;2023-03-01T00:34:47;14.40;65.50
72883;DHT22;61017;37.812;-122.286;2023-03-01T00:36:22;14.30;65.10
72883;DHT22;61017;37.812;-122.286;2023-03-01T00:37:55;14.40;65.80
72883;DHT22;61017;37.812;-122.286;2023-03-01T00:39:28;14.30;66.10
72883;DHT22;61017;37.812;-122.286;2023-03-01T00:41:07;14.30;66.60
72883;DHT22;61017;37.812;-122.286;2023-03-01T00:42:42;14.40;65.70
72883;DHT22;61017;37.812;-122.286;2023-03-01T00:44:14;14.40;65.00
72883;DHT22;61017;37.812;-122.286;2023-03-01T00:45:46;14.40;64.70
72883;DHT22;61017;37.812;-122.286;2023-03-01T00:47:18;14.40;64.20
72883;DHT22;61017;37.812;-122.286;2023-03-01T00:48:55;14.40;64.10
72883;DHT22;61017;37.812;-122.286;2023-03-01T00:50:32;14.40;65.40
72883;DHT22;61017;37.812;-122.286;2023-03-01T00:52:05;14.40;65.50
72883;DHT22;61017;37.812;-122.286;2023-03-01T00:53:37;14.40;65.40
72883;DHT22;61017;37.812;-122.286;2023-03-01T00:55:12;14.40;64.50
72883;DHT22;61017;37.812;-122.286;2023-03-01T00:56:44;14.40;64.00
72883;DHT22;61017;37.812;-122.286;2023-03-01T00:58:16;14.40;63.60
72883;DHT22;61017;37.812;-122.286;2023-03-01T00:59:47;14.50;63.30
72883;DHT22;61017;37.812;-122.286;2023-03-01T01:01:22;14.50;63.90
72883;DHT22;61017;37.812;-122.286;2023-03-01T01:02:54;14.40;64.70
72883;DHT22;61017;37.812;-122.286;2023-03-01T01:04:26;14.40;65.00
72883;DHT22;61017;37.812;-122.286;2023-03-01T01:05:57;14.40;64.50
72883;DHT22;61017;37.812;-122.286;2023-03-01T01:07:29;14.50;63.90
72883;DHT22;61017;37.812;-122.286;2023-03-01T01:09:06;14.50;63.40
72883;DHT22;61017;37.812;-122.286;2023-03-01T01:10:38;14.50;63.00
72883;DHT22;61017;37.812;-122.286;2023-03-01T01:12:09;14.50;62.50
72883;DHT22;61017;37.812;-122.286;2023-03-01T01:13:45;14.50;63.20
72883;DHT22;61017;37.812;-122.286;2023-03-01T01:15:20;14.50;63.50
72883;DHT22;61017;37.812;-122.286;2023-03-01T01:17:23;14.50;64.40
72883;DHT22;61017;37.812;-122.286;2023-03-01T01:18:55;14.50;63.30
72883;DHT22;61017;37.812;-122.286;2023-03-01T01:20:27;14.50;62.90
72883;DHT22;61017;37.812;-122.286;2023-03-01T01:21:59;14.50;62.60
72883;DHT22;61017;37.812;-122.286;2023-03-01T01:23:32;14.50;62.10
72883;DHT22;61017;37.812;-122.286;2023-03-01T01:25:04;14.60;62.20
72883;DHT22;61017;37.812;-122.286;2023-03-01T01:26:35;14.50;63.30
72883;DHT22;61017;37.812;-122.286;2023-03-01T01:28:15;14.50;63.60
72883;DHT22;61017;37.812;-122.286;2023-03-01T01:29:47;14.50;63.60
72883;DHT22;61017;37.812;-122.286;2023-03-01T01:31:20;14.50;62.70
72883;DHT22;61017;37.812;-122.286;2023-03-01T01:32:51;14.50;62.70
72883;DHT22;61017;37.812;-122.286;2023-03-01T01:34:25;14.50;62.00
72883;DHT22;61017;37.812;-122.286;2023-03-01T01:35:57;14.60;61.80
72883;DHT22;61017;37.812;-122.286;2023-03-01T01:37:34;14.50;62.70
72883;DHT22;61017;37.812;-122.286;2023-03-01T01:39:06;14.50;63.60
72883;DHT22;61017;37.812;-122.286;2023-03-01T01:40:50;14.50;63.60
72883;DHT22;61017;37.812;-122.286;2023-03-01T01:42:22;14.50;62.90
72883;DHT22;61017;37.812;-122.286;2023-03-01T01:44:19;14.50;62.20
72883;DHT22;61017;37.812;-122.286;2023-03-01T01:45:54;14.60;61.80
72883;DHT22;61017;37.812;-122.286;2023-03-01T01:47:26;14.60;61.50
72883;DHT22;61017;37.812;-122.286;2023-03-01T01:49:51;14.60;61.00
72883;DHT22;61017;37.812;-122.286;2023-03-01T01:50:59;14.50;62.50
72883;DHT22;61017;37.812;-122.286;2023-03-01T01:52:34;14.50;63.10
72883;DHT22;61017;37.812;-122.286;2023-03-01T01:54:19;14.50;62.90
72883;DHT22;61017;37.812;-122.286;2023-03-01T01:55:55;14.60;62.00
72883;DHT22;61017;37.812;-122.286;2023-03-01T01:59:12;14.60;61.20
72883;DHT22;61017;37.812;-122.286;2023-03-01T02:00:44;14.60;60.70
72883;DHT22;61017;37.812;-122.286;2023-03-01T02:02:15;14.60;61.80
72883;DHT22;61017;37.812;-122.286;2023-03-01T02:03:48;14.50;62.10
72883;DHT22;61017;37.812;-122.286;2023-03-01T02:05:36;14.50;62.80
72883;DHT22;61017;37.812;-122.286;2023-03-01T02:07:30;14.60;62.10
72883;DHT22;61017;37.812;-122.286;2023-03-01T02:09:08;14.60;61.10
72883;DHT22;61017;37.812;-122.286;2023-03-01T02:10:43;14.60;60.70
72883;DHT22;61017;37.812;-122.286;2023-03-01T02:12:20;14.60;60.70
72883;DHT22;61017;37.812;-122.286;2023-03-01T02:13:57;14.60;61.70
72883;DHT22;61017;37.812;-122.286;2023-03-01T02:15:35;14.50;62.90
72883;DHT22;61017;37.812;-122.286;2023-03-01T02:17:11;14.50;62.60
72883;DHT22;61017;37.812;-122.286;2023-03-01T02:18:43;14.50;61.70
72883;DHT22;61017;37.812;-122.286;2023-03-01T02:20:21;14.50;60.90
72883;DHT22;61017;37.812;-122.286;2023-03-01T02:22:07;14.60;60.70
72883;DHT22;61017;37.812;-122.286;2023-03-01T02:23:42;14.60;60.30
72883;DHT22;61017;37.812;-122.286;2023-03-01T02:26:55;14.60;62.50
72883;DHT22;61017;37.812;-122.286;2023-03-01T02:28:33;14.50;62.20
72883;DHT22;61017;37.812;-122.286;2023-03-01T02:30:07;14.50;62.20
72883;DHT22;61017;37.812;-122.286;2023-03-01T02:31:38;14.60;61.60
72883;DHT22;61017;37.812;-122.286;2023-03-01T02:33:10;14.60;60.80
72883;DHT22;61017;37.812;-122.286;2023-03-01T02:34:43;14.60;60.40
72883;DHT22;61017;37.812;-122.286;2023-03-01T02:36:19;14.60;60.20
72883;DHT22;61017;37.812;-122.286;2023-03-01T02:37:52;14.60;61.40
72883;DHT22;61017;37.812;-122.286;2023-03-01T02:39:40;14.50;63.10
72883;DHT22;61017;37.812;-122.286;2023-03-01T02:41:15;14.50;62.00
72883;DHT22;61017;37.812;-122.286;2023-03-01T02:42:56;14.50;61.40
72883;DHT22;61017;37.812;-122.286;2023-03-01T02:44:28;14.50;60.80
72883;DHT22;61017;37.812;-122.286;2023-03-01T02:46:12;14.60;60.30
72883;DHT22;61017;37.812;-122.286;2023-03-01T02:47:44;14.60;60.00
72883;DHT22;61017;37.812;-122.286;2023-03-01T02:49:28;14.60;59.70
72883;DHT22;61017;37.812;-122.286;2023-03-01T02:52:44;14.50;62.80
72883;DHT22;61017;37.812;-122.286;2023-03-01T02:55:50;14.50;64.20
72883;DHT22;61017;37.812;-122.286;2023-03-01T02:57:23;14.40;64.70
72883;DHT22;61017;37.812;-122.286;2023-03-01T02:58:55;14.30;65.10
72883;DHT22;61017;37.812;-122.286;2023-03-01T03:00:31;14.30;65.70
72883;DHT22;61017;37.812;-122.286;2023-03-01T03:02:04;14.30;66.00
72883;DHT22;61017;37.812;-122.286;2023-03-01T03:03:36;14.30;66.50
72883;DHT22;61017;37.812;-122.286;2023-03-01T03:05:14;14.20;66.60
72883;DHT22;61017;37.812;-122.286;2023-03-01T03:06:50;14.20;66.90
72883;DHT22;61017;37.812;-122.286;2023-03-01T03:08:22;14.20;66.70
72883;DHT22;61017;37.812;-122.286;2023-03-01T03:09:53;14.20;66.90
72883;DHT22;61017;37.812;-122.286;2023-03-01T03:11:25;14.20;67.30
72883;DHT22;61017;37.812;-122.286;2023-03-01T03:13:03;14.10;67.20
72883;DHT22;61017;37.812;-122.286;2023-03-01T03:14:35;14.10;67.60
72883;DHT22;61017;37.812;-122.286;2023-03-01T03:16:07;14.10;67.50
72883;DHT22;61017;37.812;-122.286;2023-03-01T03:17:40;14.10;67.80
72883;DHT22;61017;37.812;-122.286;2023-03-01T03:19:15;14.10;68.00
72883;DHT22;61017;37.812;-122.286;2023-03-01T03:20:48;14.10;68.00
72883;DHT22;61017;37.812;-122.286;2023-03-01T03:22:20;14.00;68.10
72883;DHT22;61017;37.812;-122.286;2023-03-01T03:23:51;14.00;68.20
72883;DHT22;61017;37.812;-122.286;2023-03-01T03:25:27;14.00;68.80
72883;DHT22;61017;37.812;-122.286;2023-03-01T03:27:02;14.00;69.20
72883;DHT22;61017;37.812;-122.286;2023-03-01T03:28:35;14.10;70.90
72883;DHT22;61017;37.812;-122.286;2023-03-01T03:30:09;14.20;72.00
72883;DHT22;61017;37.812;-122.286;2023-03-01T03:31:42;14.30;69.90
72883;DHT22;61017;37.812;-122.286;2023-03-01T03:33:13;14.30;68.30
72883;DHT22;61017;37.812;-122.286;2023-03-01T03:34:45;14.50;66.50
72883;DHT22;61017;37.812;-122.286;2023-03-01T03:36:26;14.50;65.20
72883;DHT22;61017;37.812;-122.286;2023-03-01T03:38:00;14.60;64.00
72883;DHT22;61017;37.812;-122.286;2023-03-01T03:39:32;14.60;64.50
72883;DHT22;61017;37.812;-122.286;2023-03-01T03:41:06;14.50;64.70
72883;DHT22;61017;37.812;-122.286;2023-03-01T03:43:02;14.40;65.70
72883;DHT22;61017;37.812;-122.286;2023-03-01T03:44:33;14.30;66.90
72883;DHT22;61017;37.812;-122.286;2023-03-01T03:46:06;14.30;67.80
72883;DHT22;61017;37.812;-122.286;2023-03-01T03:47:38;14.30;68.40
72883;DHT22;61017;37.812;-122.286;2023-03-01T03:49:09;14.20;68.80
72883;DHT22;61017;37.812;-122.286;2023-03-01T03:50:46;14.20;69.30
72883;DHT22;61017;37.812;-122.286;2023-03-01T03:52:19;14.20;69.80
72883;DHT22;61017;37.812;-122.286;2023-03-01T03:53:51;14.20;70.10
72883;DHT22;61017;37.812;-122.286;2023-03-01T03:55:22;14.20;70.50
72883;DHT22;61017;37.812;-122.286;2023-03-01T03:56:54;14.10;70.60
72883;DHT22;61017;37.812;-122.286;2023-03-01T03:58:26;14.10;70.80
72883;DHT22;61017;37.812;-122.286;2023-03-01T03:59:57;14.10;70.70
72883;DHT22;61017;37.812;-122.286;2023-03-01T04:01:32;14.10;71.50
72883;DHT22;61017;37.812;-122.286;2023-03-01T04:03:04;14.10;71.60
72883;DHT22;61017;37.812;-122.286;2023-03-01T04:04:35;14.10;72.40
72883;DHT22;61017;37.812;-122.286;2023-03-01T04:06:07;14.10;72.70
72883;DHT22;61017;37.812;-122.286;2023-03-01T04:07:39;14.10;72.80
72883;DHT22;61017;37.812;-122.286;2023-03-01T04:09:10;14.10;73.00
72883;DHT22;61017;37.812;-122.286;2023-03-01T04:10:46;14.10;73.40
72883;DHT22;61017;37.812;-122.286;2023-03-01T04:12:18;14.30;73.60
72883;DHT22;61017;37.812;-122.286;2023-03-01T04:13:50;14.40;73.50
72883;DHT22;61017;37.812;-122.286;2023-03-01T04:15:22;14.70;72.70
72883;DHT22;61017;37.812;-122.286;2023-03-01T04:16:54;14.60;72.70
72883;DHT22;61017;37.812;-122.286;2023-03-01T04:18:26;14.60;73.00
72883;DHT22;61017;37.812;-122.286;2023-03-01T04:20:00;14.50;73.10
72883;DHT22;61017;37.812;-122.286;2023-03-01T04:21:35;14.50;73.40
72883;DHT22;61017;37.812;-122.286;2023-03-01T04:23:09;14.40;73.60
72883;DHT22;61017;37.812;-122.286;2023-03-01T04:24:41;14.40;73.70
72883;DHT22;61017;37.812;-122.286;2023-03-01T04:26:12;14.40;73.60
72883;DHT22;61017;37.812;-122.286;2023-03-01T04:27:45;14.90;72.90
72883;DHT22;61017;37.812;-122.286;2023-03-01T04:29:18;15.00;72.60
72883;DHT22;61017;37.812;-122.286;2023-03-01T04:30:50;15.20;71.70
72883;DHT22;61017;37.812;-122.286;2023-03-01T04:32:21;15.00;72.20
72883;DHT22;61017;37.812;-122.286;2023-03-01T04:33:55;14.80;72.60
72883;DHT22;61017;37.812;-122.286;2023-03-01T04:35:26;14.70;72.60
72883;DHT22;61017;37.812;-122.286;2023-03-01T04:36:59;14.80;72.90
72883;DHT22;61017;37.812;-122.286;2023-03-01T04:38:31;14.70;73.20
72883;DHT22;61017;37.812;-122.286;2023-03-01T04:40:03;14.60;73.90
72883;DHT22;61017;37.812;-122.286;2023-03-01T04:41:35;14.50;73.90
72883;DHT22;61017;37.812;-122.286;2023-03-01T04:43:06;14.50;74.60
72883;DHT22;61017;37.812;-122.286;2023-03-01T04:44:38;14.40;74.20
72883;DHT22;61017;37.812;-122.286;2023-03-01T04:46:13;14.40;74.20
72883;DHT22;61017;37.812;-122.286;2023-03-01T04:47:46;14.30;75.90
72883;DHT22;61017;37.812;-122.286;2023-03-01T04:49:19;14.50;74.30
72883;DHT22;61017;37.812;-122.286;2023-03-01T04:50:50;14.60;71.10
72883;DHT22;61017;37.812;-122.286;2023-03-01T04:52:22;14.80;69.00
72883;DHT22;61017;37.812;-122.286;2023-03-01T04:53:54;14.90;66.80
72883;DHT22;61017;37.812;-122.286;2023-03-01T04:55:27;15.00;65.00
72883;DHT22;61017;37.812;-122.286;2023-03-01T04:56:59;15.10;63.50
72883;DHT22;61017;37.812;-122.286;2023-03-01T04:58:30;15.00;64.50
72883;DHT22;61017;37.812;-122.286;2023-03-01T05:00:04;14.80;65.40
72883;DHT22;61017;37.812;-122.286;2023-03-01T05:01:36;14.90;65.30
72883;DHT22;61017;37.812;-122.286;2023-03-01T05:03:09;15.00;63.20
72883;DHT22;61017;37.812;-122.286;2023-03-01T05:04:40;15.10;61.60
72883;DHT22;61017;37.812;-122.286;2023-03-01T05:06:13;15.20;60.40
72883;DHT22;61017;37.812;-122.286;2023-03-01T05:07:44;15.30;59.40
72883;DHT22;61017;37.812;-122.286;2023-03-01T05:09:16;15.40;58.80
72883;DHT22;61017;37.812;-122.286;2023-03-01T05:10:50;15.20;61.30
72883;DHT22;61017;37.812;-122.286;2023-03-01T05:12:22;15.00;62.50
72883;DHT22;61017;37.812;-122.286;2023-03-01T05:13:54;15.10;60.80
72883;DHT22;61017;37.812;-122.286;2023-03-01T05:15:28;15.20;59.50
72883;DHT22;61017;37.812;-122.286;2023-03-01T05:17:00;15.30;59.20
72883;DHT22;61017;37.812;-122.286;2023-03-01T05:18:32;15.30;58.00
72883;DHT22;61017;37.812;-122.286;2023-03-01T05:20:05;15.40;57.40
72883;DHT22;61017;37.812;-122.286;2023-03-01T05:21:38;15.50;57.00
72883;DHT22;61017;37.812;-122.286;2023-03-01T05:23:14;15.30;60.20
72883;DHT22;61017;37.812;-122.286;2023-03-01T05:24:46;15.10;60.10
72883;DHT22;61017;37.812;-122.286;2023-03-01T05:26:19;15.20;59.00
72883;DHT22;61017;37.812;-122.286;2023-03-01T05:27:50;15.20;58.00
72883;DHT22;61017;37.812;-122.286;2023-03-01T05:29:24;15.30;57.10
72883;DHT22;61017;37.812;-122.286;2023-03-01T05:30:57;15.40;56.60
72883;DHT22;61017;37.812;-122.286;2023-03-01T05:32:28;15.50;56.20
72883;DHT22;61017;37.812;-122.286;2023-03-01T05:34:00;15.50;56.10
72883;DHT22;61017;37.812;-122.286;2023-03-01T05:35:32;15.20;58.50
72883;DHT22;61017;37.812;-122.286;2023-03-01T05:37:04;15.10;59.10
72883;DHT22;61017;37.812;-122.286;2023-03-01T05:38:36;15.20;58.60
72883;DHT22;61017;37.812;-122.286;2023-03-01T05:40:10;15.30;57.10
72883;DHT22;61017;37.812;-122.286;2023-03-01T05:41:42;15.40;56.40
72883;DHT22;61017;37.812;-122.286;2023-03-01T05:43:15;15.40;55.90
72883;DHT22;61017;37.812;-122.286;2023-03-01T05:44:47;15.40;55.60
72883;DHT22;61017;37.812;-122.286;2023-03-01T05:46:19;15.50;55.80
72883;DHT22;61017;37.812;-122.286;2023-03-01T05:47:51;15.20;57.90
72883;DHT22;61017;37.812;-122.286;2023-03-01T05:49:23;15.10;58.50
72883;DHT22;61017;37.812;-122.286;2023-03-01T05:50:54;15.20;57.30
72883;DHT22;61017;37.812;-122.286;2023-03-01T05:52:26;15.30;56.40
72883;DHT22;61017;37.812;-122.286;2023-03-01T05:53:58;15.40;56.00
72883;DHT22;61017;37.812;-122.286;2023-03-01T05:55:31;15.40;55.60
72883;DHT22;61017;37.812;-122.286;2023-03-01T05:57:02;15.50;55.20
72883;DHT22;61017;37.812;-122.286;2023-03-01T05:58:34;15.50;55.50
72883;DHT22;61017;37.812;-122.286;2023-03-01T06:00:06;15.30;57.60
72883;DHT22;61017;37.812;-122.286;2023-03-01T06:01:38;15.10;57.90
72883;DHT22;61017;37.812;-122.286;2023-03-01T06:03:11;15.30;56.70
72883;DHT22;61017;37.812;-122.286;2023-03-01T06:04:43;15.40;56.00
72883;DHT22;61017;37.812;-122.286;2023-03-01T06:06:15;15.40;55.50
72883;DHT22;61017;37.812;-122.286;2023-03-01T06:07:46;15.50;55.00
72883;DHT22;61017;37.812;-122.286;2023-03-01T06:09:18;15.50;54.70
72883;DHT22;61017;37.812;-122.286;2023-03-01T06:10:49;15.50;55.50
72883;DHT22;61017;37.812;-122.286;2023-03-01T06:12:21;15.30;57.30
72883;DHT22;61017;37.812;-122.286;2023-03-01T06:13:53;15.20;57.70
72883;DHT22;61017;37.812;-122.286;2023-03-01T06:15:25;15.20;56.70
72883;DHT22;61017;37.812;-122.286;2023-03-01T06:16:57;15.30;55.60
72883;DHT22;61017;37.812;-122.286;2023-03-01T06:18:28;15.40;55.10
72883;DHT22;61017;37.812;-122.286;2023-03-01T06:20:00;15.50;54.80
72883;DHT22;61017;37.812;-122.286;2023-03-01T06:21:31;15.50;54.50
72883;DHT22;61017;37.812;-122.286;2023-03-01T06:23:03;15.50;55.40
72883;DHT22;61017;37.812;-122.286;2023-03-01T06:24:34;15.20;57.10
72883;DHT22;61017;37.812;-122.286;2023-03-01T06:26:07;15.20;57.20
72883;DHT22;61017;37.812;-122.286;2023-03-01T06:27:39;15.30;56.00
72883;DHT22;61017;37.812;-122.286;2023-03-01T06:29:11;15.40;55.30
72883;DHT22;61017;37.812;-122.286;2023-03-01T06:30:42;15.50;55.10
72883;DHT22;61017;37.812;-122.286;2023-03-01T06:32:15;15.50;54.70
72883;DHT22;61017;37.812;-122.286;2023-03-01T06:33:46;15.50;54.40
72883;DHT22;61017;37.812;-122.286;2023-03-01T06:35:19;15.40;55.50
72883;DHT22;61017;37.812;-122.286;2023-03-01T06:36:51;15.20;57.10
72883;DHT22;61017;37.812;-122.286;2023-03-01T06:38:23;15.10;57.20
72883;DHT22;61017;37.812;-122.286;2023-03-01T06:39:57;15.20;56.00
72883;DHT22;61017;37.812;-122.286;2023-03-01T06:41:29;15.40;55.40
72883;DHT22;61017;37.812;-122.286;2023-03-01T06:43:01;15.50;54.90
72883;DHT22;61017;37.812;-122.286;2023-03-01T06:44:33;15.50;54.60
72883;DHT22;61017;37.812;-122.286;2023-03-01T06:46:06;15.60;54.00
72883;DHT22;61017;37.812;-122.286;2023-03-01T06:47:37;15.50;55.40
72883;DHT22;61017;37.812;-122.286;2023-03-01T06:49:09;15.20;57.10
72883;DHT22;61017;37.812;-122.286;2023-03-01T06:50:41;15.20;56.80
72883;DHT22;61017;37.812;-122.286;2023-03-01T06:52:13;15.30;55.70
72883;DHT22;61017;37.812;-122.286;2023-03-01T06:53:46;15.40;54.90
72883;DHT22;61017;37.812;-122.286;2023-03-01T06:55:18;15.50;54.50
72883;DHT22;61017;37.812;-122.286;2023-03-01T06:56:50;15.50;54.10
72883;DHT22;61017;37.812;-122.286;2023-03-01T06:58:21;15.50;54.00
72883;DHT22;61017;37.812;-122.286;2023-03-01T06:59:53;15.50;55.20
72883;DHT22;61017;37.812;-122.286;2023-03-01T07:01:25;15.20;56.70
72883;DHT22;61017;37.812;-122.286;2023-03-01T07:03:00;15.20;56.50
72883;DHT22;61017;37.812;-122.286;2023-03-01T07:04:32;15.30;55.50
72883;DHT22;61017;37.812;-122.286;2023-03-01T07:06:03;15.40;55.00
72883;DHT22;61017;37.812;-122.286;2023-03-01T07:07:35;15.50;54.50
72883;DHT22;61017;37.812;-122.286;2023-03-01T07:09:07;15.60;53.90
72883;DHT22;61017;37.812;-122.286;2023-03-01T07:10:38;15.60;53.70
72883;DHT22;61017;37.812;-122.286;2023-03-01T07:12:12;15.50;55.30
72883;DHT22;61017;37.812;-122.286;2023-03-01T07:13:44;15.20;56.40
72883;DHT22;61017;37.812;-122.286;2023-03-01T07:15:16;15.20;56.40
72883;DHT22;61017;37.812;-122.286;2023-03-01T07:16:51;15.30;55.30
72883;DHT22;61017;37.812;-122.286;2023-03-01T07:18:23;15.40;54.70
72883;DHT22;61017;37.812;-122.286;2023-03-01T07:19:56;15.40;54.30
72883;DHT22;61017;37.812;-122.286;2023-03-01T07:21:28;15.40;53.80
72883;DHT22;61017;37.812;-122.286;2023-03-01T07:23:00;15.50;53.50
72883;DHT22;61017;37.812;-122.286;2023-03-01T07:24:31;15.30;55.20
72883;DHT22;61017;37.812;-122.286;2023-03-01T07:26:03;15.10;56.60
72883;DHT22;61017;37.812;-122.286;2023-03-01T07:27:34;15.10;56.60
72883;DHT22;61017;37.812;-122.286;2023-03-01T07:29:07;15.20;54.90
72883;DHT22;61017;37.812;-122.286;2023-03-01T07:30:40;15.30;54.40
72883;DHT22;61017;37.812;-122.286;2023-03-01T07:32:12;15.40;53.80
72883;DHT22;61017;37.812;-122.286;2023-03-01T07:33:43;15.40;53.40
72883;DHT22;61017;37.812;-122.286;2023-03-01T07:35:15;15.40;53.20
72883;DHT22;61017;37.812;-122.286;2023-03-01T07:36:47;15.30;54.70
72883;DHT22;61017;37.812;-122.286;2023-03-01T07:38:18;15.00;56.10
72883;DHT22;61017;37.812;-122.286;2023-03-01T07:39:50;15.00;56.20
72883;DHT22;61017;37.812;-122.286;2023-03-01T07:41:25;15.10;54.70
72883;DHT22;61017;37.812;-122.286;2023-03-01T07:42:57;15.20;54.10
72883;DHT22;61017;37.812;-122.286;2023-03-01T07:44:29;15.30;53.80
72883;DHT22;61017;37.812;-122.286;2023-03-01T07:46:01;15.40;53.30
72883;DHT22;61017;37.812;-122.286;2023-03-01T07:47:33;15.40;52.90
72883;DHT22;61017;37.812;-122.286;2023-03-01T07:49:05;15.20;54.80
72883;DHT22;61017;37.812;-122.286;2023-03-01T07:50:36;14.90;55.70
72883;DHT22;61017;37.812;-122.286;2023-03-01T07:52:10;14.80;56.80
72883;DHT22;61017;37.812;-122.286;2023-03-01T07:53:45;14.60;57.20
72883;DHT22;61017;37.812;-122.286;2023-03-01T07:55:16;14.50;57.90
72883;DHT22;61017;37.812;-122.286;2023-03-01T07:56:48;14.40;58.20
72883;DHT22;61017;37.812;-122.286;2023-03-01T07:58:20;14.40;58.90
72883;DHT22;61017;37.812;-122.286;2023-03-01T07:59:54;14.30;59.10
72883;DHT22;61017;37.812;-122.286;2023-03-01T08:01:28;14.30;59.30
72883;DHT22;61017;37.812;-122.286;2023-03-01T08:03:01;14.20;59.70
72883;DHT22;61017;37.812;-122.286;2023-03-01T08:04:33;14.20;60.00
72883;DHT22;61017;37.812;-122.286;2023-03-01T08:06:25;14.20;60.40
72883;DHT22;61017;37.812;-122.286;2023-03-01T08:07:57;14.10;60.10
72883;DHT22;61017;37.812;-122.286;2023-03-01T08:09:28;14.10;60.20
72883;DHT22;61017;37.812;-122.286;2023-03-01T08:11:02;14.00;60.50
72883;DHT22;61017;37.812;-122.286;2023-03-01T08:12:34;14.00;61.10
72883;DHT22;61017;37.812;-122.286;2023-03-01T08:14:06;14.00;61.30
72883;DHT22;61017;37.812;-122.286;2023-03-01T08:15:38;14.00;61.50
72883;DHT22;61017;37.812;-122.286;2023-03-01T08:17:10;14.00;61.80
72883;DHT22;61017;37.812;-122.286;2023-03-01T08:18:42;14.00;61.90
72883;DHT22;61017;37.812;-122.286;2023-03-01T08:20:14;13.90;61.90
72883;DHT22;61017;37.812;-122.286;2023-03-01T08:21:49;13.90;62.10
72883;DHT22;61017;37.812;-122.286;2023-03-01T08:23:39;13.90;62.10
72883;DHT22;61017;37.812;-122.286;2023-03-01T08:25:10;13.90;62.10
72883;DHT22;61017;37.812;-122.286;2023-03-01T08:26:42;13.90;62.20
72883;DHT22;61017;37.812;-122.286;2023-03-01T08:28:14;13.80;62.50
72883;DHT22;61017;37.812;-122.286;2023-03-01T08:29:45;13.80;62.60
72883;DHT22;61017;37.812;-122.286;2023-03-01T08:31:22;13.80;62.60
72883;DHT22;61017;37.812;-122.286;2023-03-01T08:32:57;13.80;62.60
72883;DHT22;61017;37.812;-122.286;2023-03-01T08:34:28;13.70;62.50
72883;DHT22;61017;37.812;-122.286;2023-03-01T08:36:04;13.80;62.80
72883;DHT22;61017;37.812;-122.286;2023-03-01T08:37:37;13.70;62.70
72883;DHT22;61017;37.812;-122.286;2023-03-01T08:39:11;13.70;63.00
72883;DHT22;61017;37.812;-122.286;2023-03-01T08:40:43;13.70;63.00
72883;DHT22;61017;37.812;-122.286;2023-03-01T08:42:15;13.70;62.80
72883;DHT22;61017;37.812;-122.286;2023-03-01T08:43:47;13.70;62.90
72883;DHT22;61017;37.812;-122.286;2023-03-01T08:45:21;13.70;62.70
72883;DHT22;61017;37.812;-122.286;2023-03-01T08:47:05;13.70;62.70
72883;DHT22;61017;37.812;-122.286;2023-03-01T08:48:45;13.70;62.90
72883;DHT22;61017;37.812;-122.286;2023-03-01T08:50:17;13.70;62.80
72883;DHT22;61017;37.812;-122.286;2023-03-01T08:51:51;13.70;62.70
72883;DHT22;61017;37.812;-122.286;2023-03-01T08:53:23;13.60;62.20
72883;DHT22;61017;37.812;-122.286;2023-03-01T08:54:55;13.60;62.20
72883;DHT22;61017;37.812;-122.286;2023-03-01T08:56:27;13.60;62.40
72883;DHT22;61017;37.812;-122.286;2023-03-01T08:57:59;13.60;62.70
72883;DHT22;61017;37.812;-122.286;2023-03-01T08:59:31;13.60;63.00
72883;DHT22;61017;37.812;-122.286;2023-03-01T09:01:13;13.60;62.60
72883;DHT22;61017;37.812;-122.286;2023-03-01T09:02:45;13.60;62.80
72883;DHT22;61017;37.812;-122.286;2023-03-01T09:04:17;13.60;62.80
72883;DHT22;61017;37.812;-122.286;2023-03-01T09:05:48;13.50;62.80
72883;DHT22;61017;37.812;-122.286;2023-03-01T09:07:20;13.50;62.80
72883;DHT22;61017;37.812;-122.286;2023-03-01T09:08:52;13.50;62.60
72883;DHT22;61017;37.812;-122.286;2023-03-01T09:10:23;13.50;62.50
72883;DHT22;61017;37.812;-122.286;2023-03-01T09:11:57;13.50;62.70
72883;DHT22;61017;37.812;-122.286;2023-03-01T09:13:29;13.50;62.70
72883;DHT22;61017;37.812;-122.286;2023-03-01T09:15:01;13.50;62.60
72883;DHT22;61017;37.812;-122.286;2023-03-01T09:16:33;13.50;62.50
72883;DHT22;61017;37.812;-122.286;2023-03-01T09:18:05;13.50;62.80
72883;DHT22;61017;37.812;-122.286;2023-03-01T09:19:36;13.50;62.60
72883;DHT22;61017;37.812;-122.286;2023-03-01T09:21:14;13.50;62.80
72883;DHT22;61017;37.812;-122.286;2023-03-01T09:22:46;13.50;62.70
72883;DHT22;61017;37.812;-122.286;2023-03-01T09:24:19;13.50;62.60
72883;DHT22;61017;37.812;-122.286;2023-03-01T09:25:52;13.50;62.80
72883;DHT22;61017;37.812;-122.286;2023-03-01T09:27:27;13.40;62.70
72883;DHT22;61017;37.812;-122.286;2023-03-01T09:28:59;13.40;62.80
72883;DHT22;61017;37.812;-122.286;2023-03-01T09:30:33;13.40;62.70
72883;DHT22;61017;37.812;-122.286;2023-03-01T09:32:05;13.40;62.90